Time;durP1;ratioP1;P1;durP2;ratioP2;P2;SDS_P1;SDS_P2;PMS_P1;PMS_P2;Temp;Humidity;BMP_temperature;BMP_pressure;BME280_temperature;BME280_humidity;BME280_pressure;Samples;Min_cycle;Max_cycle;Signal;HPM_P1;HPM_P2
2023/03/27 00:02:27;;;;;;;;;;;;;;;5.02;65.65;100172.21;107719;1254;108998;-61
2023/03/27 00:04:56;;;;;;;;;;;;;;;4.97;65.83;100169.52;107697;1255;97933;-62
2023/03/27 00:07:24;;;;;;;;;;;;;;;4.94;65.80;100167.98;107694;1254;97784;-61
2023/03/27 00:09:52;;;;;;;;;;;;;;;4.90;65.87;100167.73;107709;1254;111345;-59
2023/03/27 00:12:21;;;;;;;;;;;;;;;4.86;65.81;100166.61;107659;1252;108718;-60
2023/03/27 00:14:49;;;;;;;;;;;;;;;4.84;65.62;100166.95;107651;1254;107645;-61
2023/03/27 00:17:18;;;;;;;;;;;;;;;4.82;65.67;100168.73;107692;1254;97832;-60
2023/03/27 00:19:46;;;;;;;;;;;;;;;4.79;65.71;100165.39;107696;1253;97931;-61
2023/03/27 00:22:15;;;;;;;;;;;;;;;4.76;65.88;100161.54;107684;1255;112173;-60
2023/03/27 00:24:44;;;;;;;;;;;;;;;4.72;65.70;100165.88;107719;1254;111183;-61
2023/03/27 00:27:13;;;;;;;;;;;;;;;4.70;66.37;100170.98;107652;1254;108690;-61
2023/03/27 00:29:41;;;;;;;;;;;;;;;4.69;66.22;100164.14;107670;1254;97820;-61
2023/03/27 00:32:10;;;;;;;;;;;;;;;4.68;66.60;100160.50;107674;1254;97801;-60
2023/03/27 00:34:38;;;;;;;;;;;;;;;4.66;66.22;100155.34;107653;1253;111837;-60
2023/03/27 00:37:06;;;;;;;;;;;;;;;4.64;66.47;100151.73;107699;1254;110070;-61
2023/03/27 00:39:34;;;;;;;;;;;;;;;4.62;66.34;100150.81;107637;1253;108986;-60
2023/03/27 00:42:02;;;;;;;;;;;;;;;4.58;66.38;100144.73;107520;1252;97823;-60
2023/03/27 00:44:34;;;;;;;;;;;;;;;4.53;66.37;100141.50;107505;1253;97903;-61
2023/03/27 00:47:11;;;;;;;;;;;;;;;4.49;66.60;100138.05;107679;1252;110589;-60
2023/03/27 00:49:40;;;;;;;;;;;;;;;4.49;66.75;100129.23;107675;1254;109554;-61
2023/03/27 00:52:08;;;;;;;;;;;;;;;4.47;66.55;100132.38;107665;1253;108157;-61
2023/03/27 00:54:37;;;;;;;;;;;;;;;4.44;66.44;100132.39;107529;1254;97823;-61
2023/03/27 00:57:08;;;;;;;;;;;;;;;4.42;66.64;100126.16;107690;1253;97813;-60
2023/03/27 00:59:38;;;;;;;;;;;;;;;4.39;66.82;100118.02;107714;1253;110924;-61
2023/03/27 01:02:07;;;;;;;;;;;;;;;4.37;66.72;100118.68;107495;1254;109720;-61
2023/03/27 01:04:36;;;;;;;;;;;;;;;4.32;66.34;100115.13;107596;1254;108920;-62
2023/03/27 01:07:07;;;;;;;;;;;;;;;4.27;66.45;100107.02;107653;1254;97707;-61
2023/03/27 01:09:36;;;;;;;;;;;;;;;4.26;66.35;100111.52;107675;1251;97911;-61
2023/03/27 01:12:05;;;;;;;;;;;;;;;4.24;66.85;100111.29;107551;1254;111492;-61
2023/03/27 01:14:34;;;;;;;;;;;;;;;4.23;66.65;100107.64;107702;1256;110915;-61
2023/03/27 01:17:18;;;;;;;;;;;;;;;4.22;66.77;100101.11;107691;1251;108029;-61
2023/03/27 01:20:06;;;;;;;;;;;;;;;4.21;66.81;100097.67;107630;1251;97829;-60
2023/03/27 01:22:53;;;;;;;;;;;;;;;4.19;66.86;100093.00;107675;1251;97710;-60
2023/03/27 01:25:40;;;;;;;;;;;;;;;4.17;67.04;100088.37;107523;1254;111893;-61
2023/03/27 01:28:28;;;;;;;;;;;;;;;4.14;67.04;100082.89;107568;1253;108839;-61
2023/03/27 01:31:02;;;;;;;;;;;;;;;4.13;66.90;100080.35;107695;1251;108994;-60
2023/03/27 01:33:31;;;;;;;;;;;;;;;4.12;66.99;100087.19;107553;1254;98401;-61
2023/03/27 01:36:18;;;;;;;;;;;;;;;4.11;66.93;100080.34;107558;1251;97704;-60
2023/03/27 01:39:06;;;;;;;;;;;;;;;4.09;66.71;100078.63;108083;1254;111216;-61
2023/03/27 01:41:54;;;;;;;;;;;;;;;4.05;66.99;100076.47;107526;1251;109963;-60
2023/03/27 01:44:26;;;;;;;;;;;;;;;3.97;66.78;100075.27;107411;1253;109846;-61
2023/03/27 01:47:23;;;;;;;;;;;;;;;3.95;66.90;100074.18;107648;1256;98639;-61
2023/03/27 01:50:16;;;;;;;;;;;;;;;3.94;66.93;100079.72;107676;1252;97834;-59
2023/03/27 01:52:50;;;;;;;;;;;;;;;3.89;66.82;100078.65;107646;1254;111027;-60
2023/03/27 01:55:22;;;;;;;;;;;;;;;3.90;66.81;100083.20;107661;1254;109332;-61
2023/03/27 01:58:12;;;;;;;;;;;;;;;3.90;66.94;100077.36;107674;1256;107666;-62
2023/03/27 02:00:43;;;;;;;;;;;;;;;3.89;66.94;100078.31;107534;1257;97802;-62
2023/03/27 02:03:42;;;;;;;;;;;;;;;3.87;66.88;100078.11;107628;1254;97848;-62
2023/03/27 02:06:17;;;;;;;;;;;;;;;3.87;67.06;100078.63;107628;1253;111076;-61
2023/03/27 02:08:49;;;;;;;;;;;;;;;3.85;66.86;100079.33;107649;1253;110199;-61
2023/03/27 02:11:22;;;;;;;;;;;;;;;3.83;67.21;100080.37;107609;1254;107787;-62
2023/03/27 02:13:54;;;;;;;;;;;;;;;3.82;67.19;100072.96;107666;1254;97726;-59
2023/03/27 02:16:32;;;;;;;;;;;;;;;3.81;67.19;100072.17;107595;1254;97842;-61
2023/03/27 02:19:03;;;;;;;;;;;;;;;3.79;67.14;100074.08;107647;1254;111965;-61
2023/03/27 02:21:32;;;;;;;;;;;;;;;3.77;67.15;100077.18;107676;1254;111372;-61
2023/03/27 02:24:04;;;;;;;;;;;;;;;3.74;67.40;100073.85;107664;1255;109795;-62
2023/03/27 02:26:34;;;;;;;;;;;;;;;3.72;67.47;100072.23;107639;1254;97804;-59
2023/03/27 02:29:16;;;;;;;;;;;;;;;3.69;67.35;100072.60;107497;1253;98252;-61
2023/03/27 02:31:45;;;;;;;;;;;;;;;3.70;67.39;100074.35;107551;1252;111977;-61
2023/03/27 02:34:22;;;;;;;;;;;;;;;3.69;67.36;100073.90;107651;1254;109675;-60
2023/03/27 02:37:00;;;;;;;;;;;;;;;3.67;67.09;100074.38;107641;1253;107811;-61
2023/03/27 02:40:03;;;;;;;;;;;;;;;3.65;67.34;100077.23;107595;1251;97825;-60
2023/03/27 02:42:32;;;;;;;;;;;;;;;3.64;67.41;100074.61;107690;1253;97818;-60
2023/03/27 02:45:15;;;;;;;;;;;;;;;3.62;67.26;100075.48;107696;1253;112405;-59
2023/03/27 02:47:46;;;;;;;;;;;;;;;3.58;67.37;100073.05;107563;1252;108930;-61
2023/03/27 02:50:18;;;;;;;;;;;;;;;3.55;67.38;100070.27;107617;1254;108143;-62
2023/03/27 02:52:50;;;;;;;;;;;;;;;3.50;67.41;100069.37;107508;1253;98268;-60
2023/03/27 02:55:28;;;;;;;;;;;;;;;3.46;67.23;100066.27;107538;1253;97909;-60
2023/03/27 02:57:58;;;;;;;;;;;;;;;3.41;67.53;100066.08;107639;1253;112438;-61
2023/03/27 03:00:57;;;;;;;;;;;;;;;3.38;67.39;100064.52;107564;1256;110114;-58
2023/03/27 03:03:59;;;;;;;;;;;;;;;3.37;67.63;100064.39;107538;1257;108001;-59
2023/03/27 03:06:53;;;;;;;;;;;;;;;3.38;67.66;100065.20;107314;1252;97851;-61
2023/03/27 03:09:23;;;;;;;;;;;;;;;3.40;67.58;100062.64;107689;1252;97790;-61
2023/03/27 03:11:52;;;;;;;;;;;;;;;3.37;67.48;100057.13;107552;1253;110808;-61
2023/03/27 03:14:23;;;;;;;;;;;;;;;3.33;67.36;100054.08;107520;1254;109448;-60
2023/03/27 03:16:51;;;;;;;;;;;;;;;3.29;67.22;100050.92;107718;1254;109482;-59
2023/03/27 03:19:22;;;;;;;;;;;;;;;3.26;67.30;100052.05;107586;1253;97828;-61
2023/03/27 03:21:51;;;;;;;;;;;;;;;3.22;67.41;100054.61;107710;1254;97784;-62
2023/03/27 03:24:21;;;;;;;;;;;;;;;3.21;67.79;100051.34;107687;1254;110686;-60
2023/03/27 03:26:49;;;;;;;;;;;;;;;3.21;67.87;100052.23;107696;1252;109033;-62
2023/03/27 03:29:18;;;;;;;;;;;;;;;3.22;67.81;100048.47;107652;1253;108079;-60
2023/03/27 03:32:00;;;;;;;;;;;;;;;3.19;67.64;100039.44;107684;1252;97800;-59
2023/03/27 03:34:29;;;;;;;;;;;;;;;3.18;67.94;100036.64;107627;1255;97947;-60
2023/03/27 03:36:58;;;;;;;;;;;;;;;3.17;68.05;100032.49;107707;1254;111354;-60
2023/03/27 03:39:29;;;;;;;;;;;;;;;3.16;68.05;100030.64;107701;1253;110457;-59
2023/03/27 03:41:58;;;;;;;;;;;;;;;3.17;68.00;100033.73;107710;1254;108605;-60
2023/03/27 03:44:26;;;;;;;;;;;;;;;3.20;68.30;100034.75;107630;1254;97793;-60
2023/03/27 03:46:55;;;;;;;;;;;;;;;3.21;68.26;100034.86;107670;1254;97922;-60
2023/03/27 03:49:23;;;;;;;;;;;;;;;3.21;68.21;100034.15;107725;1254;111838;-61
2023/03/27 03:51:52;;;;;;;;;;;;;;;3.20;68.22;100033.84;107734;1254;110957;-59
2023/03/27 03:54:39;;;;;;;;;;;;;;;3.19;68.36;100034.49;107658;1253;108678;-61
2023/03/27 03:57:13;;;;;;;;;;;;;;;3.18;68.74;100039.67;107615;1254;97825;-61
2023/03/27 03:59:42;;;;;;;;;;;;;;;3.21;68.65;100037.30;107563;1254;97828;-60
2023/03/27 04:02:44;;;;;;;;;;;;;;;3.27;69.07;100040.59;107719;1252;112191;-62
2023/03/27 04:05:14;;;;;;;;;;;;;;;3.33;69.27;100041.32;107691;1256;108568;-61
2023/03/27 04:07:44;;;;;;;;;;;;;;;3.38;69.03;100039.73;107686;1254;106074;-63
2023/03/27 04:10:21;;;;;;;;;;;;;;;3.40;68.93;100039.92;107673;1254;97816;-60
2023/03/27 04:12:51;;;;;;;;;;;;;;;3.42;68.76;100039.25;107625;1252;97827;-61
2023/03/27 04:15:42;;;;;;;;;;;;;;;3.39;68.51;100042.12;107681;1253;111663;-61
2023/03/27 04:18:33;;;;;;;;;;;;;;;3.40;68.86;100044.30;107703;1254;108316;-61
2023/03/27 04:21:17;;;;;;;;;;;;;;;3.42;69.05;100042.75;107691;1254;108778;-61
2023/03/27 04:23:47;;;;;;;;;;;;;;;3.44;69.07;100043.32;107680;1254;97836;-61
2023/03/27 04:26:25;;;;;;;;;;;;;;;3.49;69.15;100043.58;107698;1251;97723;-61
2023/03/27 04:29:29;;;;;;;;;;;;;;;3.52;68.91;100037.80;107582;1253;111043;-61
2023/03/27 04:32:00;;;;;;;;;;;;;;;3.56;69.20;100040.75;107658;1251;109032;-61
2023/03/27 04:34:41;;;;;;;;;;;;;;;3.63;69.30;100037.77;107555;1251;108121;-61
2023/03/27 04:37:22;;;;;;;;;;;;;;;3.69;69.38;100032.41;107500;1253;97842;-61
2023/03/27 04:40:03;;;;;;;;;;;;;;;3.75;69.55;100031.43;107689;1251;97700;-62
2023/03/27 04:42:32;;;;;;;;;;;;;;;3.78;69.12;100029.42;107696;1255;111628;-60
2023/03/27 04:45:03;;;;;;;;;;;;;;;3.82;69.25;100029.68;107709;1254;108923;-62
2023/03/27 04:47:36;;;;;;;;;;;;;;;3.84;69.13;100030.59;107670;1253;107643;-61
2023/03/27 04:50:06;;;;;;;;;;;;;;;3.87;69.18;100031.09;107633;1254;97942;-61
2023/03/27 04:52:35;;;;;;;;;;;;;;;3.93;69.39;100025.86;107693;1253;97714;-60
2023/03/27 04:55:04;;;;;;;;;;;;;;;4.00;69.68;100027.14;107576;1253;112051;-62
2023/03/27 04:57:33;;;;;;;;;;;;;;;4.06;69.59;100025.63;107586;1254;109750;-61
2023/03/27 05:00:13;;;;;;;;;;;;;;;4.10;69.68;100019.84;107698;1253;107461;-62
2023/03/27 05:02:47;;;;;;;;;;;;;;;4.13;69.48;100017.83;107649;1253;97854;-61
2023/03/27 05:05:24;;;;;;;;;;;;;;;4.17;69.42;100015.59;107710;1254;97799;-62
2023/03/27 05:07:53;;;;;;;;;;;;;;;4.23;69.41;100011.26;107699;1253;112284;-61
2023/03/27 05:10:23;;;;;;;;;;;;;;;4.28;69.41;100006.66;107718;1253;109232;-64
2023/03/27 05:12:52;;;;;;;;;;;;;;;4.29;69.26;100005.48;107677;1253;107725;-62
2023/03/27 05:15:23;;;;;;;;;;;;;;;4.31;69.17;100003.74;107667;1252;97816;-63
2023/03/27 05:17:53;;;;;;;;;;;;;;;4.34;69.31;100003.90;107689;1252;97727;-62
2023/03/27 05:20:24;;;;;;;;;;;;;;;4.37;69.31;100001.67;107699;1253;111434;-62
2023/03/27 05:22:53;;;;;;;;;;;;;;;4.42;69.36;99998.02;107741;1253;108878;-60
2023/03/27 05:25:29;;;;;;;;;;;;;;;4.47;69.40;100002.19;107665;1253;107816;-61
2023/03/27 05:27:59;;;;;;;;;;;;;;;4.53;69.50;99997.81;107679;1251;97797;-62
2023/03/27 05:30:33;;;;;;;;;;;;;;;4.60;69.58;99998.02;107692;1254;97756;-62
2023/03/27 05:33:15;;;;;;;;;;;;;;;4.68;69.61;99997.06;107677;1253;111742;-61
2023/03/27 05:35:47;;;;;;;;;;;;;;;4.77;69.70;99992.86;107707;1253;109031;-62
2023/03/27 05:38:15;;;;;;;;;;;;;;;4.86;69.85;99988.61;107628;1253;107686;-61
2023/03/27 05:41:03;;;;;;;;;;;;;;;4.95;69.78;99986.16;107643;1252;97714;-62
2023/03/27 05:43:34;;;;;;;;;;;;;;;5.05;69.97;99984.15;107653;1254;97741;-62
2023/03/27 05:46:03;;;;;;;;;;;;;;;5.15;70.07;99982.67;107650;1253;112286;-61
2023/03/27 05:48:32;;;;;;;;;;;;;;;5.25;70.42;99979.18;107657;1253;109994;-62
2023/03/27 05:51:01;;;;;;;;;;;;;;;5.36;71.14;99978.46;107622;1254;107985;-62
2023/03/27 05:53:30;;;;;;;;;;;;;;;5.49;71.71;99977.64;107643;1253;97812;-61
2023/03/27 05:56:19;;;;;;;;;;;;;;;5.65;71.67;99972.11;107672;1252;97717;-61
2023/03/27 05:58:56;;;;;;;;;;;;;;;5.83;71.49;99975.63;107677;1251;110883;-61
2023/03/27 06:01:25;;;;;;;;;;;;;;;5.99;71.25;99974.75;107612;1251;109822;-62
2023/03/27 06:03:55;;;;;;;;;;;;;;;6.14;71.04;99969.02;107652;1255;108095;-61
2023/03/27 06:06:28;;;;;;;;;;;;;;;6.30;71.13;99965.80;107676;1254;97856;-61
2023/03/27 06:08:58;;;;;;;;;;;;;;;6.43;70.58;99962.06;107687;1252;97946;-61
2023/03/27 06:11:27;;;;;;;;;;;;;;;6.55;70.26;99957.80;107663;1254;111798;-62
2023/03/27 06:13:56;;;;;;;;;;;;;;;6.69;70.01;99960.74;107631;1254;110058;-63
2023/03/27 06:16:41;;;;;;;;;;;;;;;6.84;69.98;99956.95;107686;1252;108716;-62
2023/03/27 06:19:30;;;;;;;;;;;;;;;7.00;69.67;99949.38;107650;1253;97809;-62
2023/03/27 06:21:58;;;;;;;;;;;;;;;7.17;69.57;99946.83;107694;1251;97748;-61
2023/03/27 06:24:27;;;;;;;;;;;;;;;7.33;69.41;99937.89;107667;1254;111907;-62
2023/03/27 06:26:57;;;;;;;;;;;;;;;7.52;69.52;99939.97;107696;1252;109214;-62
2023/03/27 06:29:29;;;;;;;;;;;;;;;7.68;69.06;99929.86;107550;1255;108239;-60
2023/03/27 06:32:00;;;;;;;;;;;;;;;7.80;68.75;99925.85;107598;1254;97928;-63
2023/03/27 06:34:36;;;;;;;;;;;;;;;7.91;68.21;99923.99;107516;1254;97841;-62
2023/03/27 06:37:50;;;;;;;;;;;;;;;8.08;68.09;99922.79;107207;1254;111127;-61
2023/03/27 06:40:23;;;;;;;;;;;;;;;8.24;68.03;99915.30;107626;1253;109184;-62
2023/03/27 06:42:57;;;;;;;;;;;;;;;8.42;67.95;99914.23;107640;1254;108734;-60
2023/03/27 06:45:36;;;;;;;;;;;;;;;8.61;67.75;99906.59;107633;1254;97825;-61
2023/03/27 06:48:23;;;;;;;;;;;;;;;8.79;67.06;99901.67;107649;1254;97938;-60
2023/03/27 06:50:56;;;;;;;;;;;;;;;8.95;66.85;99892.66;107552;1254;110964;-61
2023/03/27 06:53:25;;;;;;;;;;;;;;;9.10;66.68;99891.70;107690;1253;108976;-62
2023/03/27 06:55:56;;;;;;;;;;;;;;;9.24;66.30;99889.30;107673;1253;108526;-62
2023/03/27 06:58:26;;;;;;;;;;;;;;;9.38;65.97;99880.05;107519;1254;97928;-62
2023/03/27 07:00:55;;;;;;;;;;;;;;;9.54;65.87;99876.48;107701;1253;97806;-63
2023/03/27 07:03:50;;;;;;;;;;;;;;;9.69;65.36;99876.68;107588;1254;111534;-61
2023/03/27 07:06:38;;;;;;;;;;;;;;;9.81;65.03;99874.75;107417;1253;109876;-61
2023/03/27 07:09:09;;;;;;;;;;;;;;;9.93;64.43;99881.27;107640;1252;108608;-62
2023/03/27 07:11:38;;;;;;;;;;;;;;;10.00;64.48;99877.91;107651;1252;97831;-62
2023/03/27 07:14:09;;;;;;;;;;;;;;;10.09;64.59;99879.67;107647;1254;97936;-64
2023/03/27 07:16:37;;;;;;;;;;;;;;;10.16;64.08;99874.48;107543;1254;111647;-62
2023/03/27 07:19:06;;;;;;;;;;;;;;;10.21;64.08;99873.51;107662;1253;109577;-62
2023/03/27 07:21:37;;;;;;;;;;;;;;;10.25;64.13;99873.31;107654;1254;108435;-61
2023/03/27 07:24:06;;;;;;;;;;;;;;;10.36;64.31;99868.72;107674;1253;97949;-63
2023/03/27 07:26:36;;;;;;;;;;;;;;;10.50;64.35;99868.81;107700;1254;97724;-63
2023/03/27 07:29:21;;;;;;;;;;;;;;;10.69;64.09;99869.70;107662;1253;113027;-61
2023/03/27 07:31:53;;;;;;;;;;;;;;;10.85;64.09;99865.38;107676;1254;109777;-63
2023/03/27 07:34:49;;;;;;;;;;;;;;;11.06;63.90;99859.65;107640;1254;108143;-62
2023/03/27 07:37:21;;;;;;;;;;;;;;;11.22;63.35;99855.08;107634;1253;97995;-61
2023/03/27 07:40:12;;;;;;;;;;;;;;;11.42;63.22;99846.31;107683;1254;97835;-62
2023/03/27 07:42:44;;;;;;;;;;;;;;;11.57;61.54;99846.31;107695;1252;111136;-62
2023/03/27 07:45:19;;;;;;;;;;;;;;;11.72;60.93;99838.94;107690;1254;109800;-62
2023/03/27 07:47:49;;;;;;;;;;;;;;;11.83;59.87;99836.85;107661;1253;108808;-62
2023/03/27 07:50:19;;;;;;;;;;;;;;;11.94;60.02;99830.73;107687;1254;97909;-62
2023/03/27 07:52:48;;;;;;;;;;;;;;;12.03;60.20;99832.04;107682;1253;97708;-62
2023/03/27 07:55:17;;;;;;;;;;;;;;;12.09;60.02;99830.66;107673;1254;111284;-61
2023/03/27 07:57:55;;;;;;;;;;;;;;;12.13;59.63;99826.68;107683;1252;111845;-61
2023/03/27 08:00:34;;;;;;;;;;;;;;;12.17;59.79;99823.27;107618;1254;108594;-62
2023/03/27 08:03:10;;;;;;;;;;;;;;;12.24;59.59;99818.52;107667;1254;97839;-63
2023/03/27 08:05:43;;;;;;;;;;;;;;;12.24;58.45;99820.47;107698;1253;97893;-62
2023/03/27 08:08:14;;;;;;;;;;;;;;;12.26;57.38;99816.83;107623;1254;112906;-61
2023/03/27 08:10:53;;;;;;;;;;;;;;;12.34;50.27;99811.38;107667;1252;109782;-62
2023/03/27 08:13:22;;;;;;;;;;;;;;;12.48;45.64;99806.26;107605;1256;108721;-61
2023/03/27 08:15:51;;;;;;;;;;;;;;;12.57;46.63;99807.17;107577;1254;97707;-62
2023/03/27 08:18:28;;;;;;;;;;;;;;;12.71;44.99;99799.14;107717;1253;97860;-63
2023/03/27 08:21:02;;;;;;;;;;;;;;;12.87;44.29;99791.58;107679;1254;111797;-63
2023/03/27 08:23:32;;;;;;;;;;;;;;;13.05;43.06;99790.22;107632;1254;109898;-62
2023/03/27 08:26:19;;;;;;;;;;;;;;;13.29;42.95;99780.13;107650;1254;108381;-63
2023/03/27 08:29:09;;;;;;;;;;;;;;;13.56;42.34;99772.89;107638;1254;97806;-62
2023/03/27 08:31:38;;;;;;;;;;;;;;;13.86;42.43;99760.17;107722;1254;98018;-61
2023/03/27 08:34:07;;;;;;;;;;;;;;;14.26;40.92;99759.39;107648;1254;111248;-62
2023/03/27 08:36:48;;;;;;;;;;;;;;;14.68;40.26;99748.94;107648;1254;108993;-62
2023/03/27 08:39:17;;;;;;;;;;;;;;;15.08;39.07;99742.27;107618;1254;108632;-61
2023/03/27 08:42:17;;;;;;;;;;;;;;;15.45;37.30;99740.75;107558;1253;98015;-62
2023/03/27 08:44:53;;;;;;;;;;;;;;;15.71;34.85;99735.14;107633;1254;97818;-61
2023/03/27 08:47:34;;;;;;;;;;;;;;;15.95;32.89;99728.02;107673;1253;111994;-61
2023/03/27 08:50:35;;;;;;;;;;;;;;;16.15;31.91;99716.89;107664;1254;109984;-63
2023/03/27 08:53:21;;;;;;;;;;;;;;;16.37;30.55;99711.65;107626;1253;108588;-62
2023/03/27 08:55:49;;;;;;;;;;;;;;;16.52;30.48;99699.49;107635;1254;97818;-63
2023/03/27 08:58:22;;;;;;;;;;;;;;;16.68;29.93;99697.55;107647;1254;97819;-62
2023/03/27 09:01:01;;;;;;;;;;;;;;;16.81;29.53;99693.55;107629;1254;112388;-61
2023/03/27 09:03:34;;;;;;;;;;;;;;;16.86;29.36;99689.21;107724;1252;109766;-62
2023/03/27 09:06:17;;;;;;;;;;;;;;;16.87;29.61;99683.20;107667;1253;108147;-61
2023/03/27 09:09:05;;;;;;;;;;;;;;;16.89;30.16;99673.48;107681;1254;97838;-62
2023/03/27 09:11:40;;;;;;;;;;;;;;;16.92;30.70;99677.95;107628;1254;97792;-62
2023/03/27 09:14:35;;;;;;;;;;;;;;;16.91;31.33;99675.34;107566;1253;110948;-64
2023/03/27 09:17:24;;;;;;;;;;;;;;;16.91;31.09;99674.17;107577;1254;110202;-61
2023/03/27 09:20:07;;;;;;;;;;;;;;;16.86;30.22;99672.45;107621;1253;108377;-62
2023/03/27 09:22:43;;;;;;;;;;;;;;;16.78;30.31;99670.27;107622;1252;97851;-64
2023/03/27 09:25:41;;;;;;;;;;;;;;;16.68;30.21;99668.05;107674;1252;97795;-61
2023/03/27 09:28:50;;;;;;;;;;;;;;;16.58;30.61;99670.06;107680;1254;110304;-63
2023/03/27 09:31:26;;;;;;;;;;;;;;;16.49;31.83;99659.55;107707;1252;110991;-62
2023/03/27 09:33:56;;;;;;;;;;;;;;;16.49;31.80;99660.42;107644;1254;108119;-64
2023/03/27 09:36:25;;;;;;;;;;;;;;;16.46;32.14;99651.05;107616;1253;97833;-63
2023/03/27 09:39:01;;;;;;;;;;;;;;;16.40;32.40;99652.03;107634;1253;97838;-62
2023/03/27 09:41:32;;;;;;;;;;;;;;;16.38;32.34;99654.98;107634;1254;110664;-61
2023/03/27 09:44:12;;;;;;;;;;;;;;;16.30;32.35;99648.27;107452;1253;109023;-62
2023/03/27 09:46:45;;;;;;;;;;;;;;;16.17;32.94;99646.70;107568;1253;108217;-63
2023/03/27 09:49:16;;;;;;;;;;;;;;;16.09;32.94;99650.29;107619;1254;97832;-63
2023/03/27 09:51:50;;;;;;;;;;;;;;;16.00;33.60;99649.99;107660;1254;97819;-63
2023/03/27 09:54:50;;;;;;;;;;;;;;;15.91;33.96;99653.98;107567;1254;111741;-62
2023/03/27 09:57:19;;;;;;;;;;;;;;;15.83;33.83;99658.42;107539;1252;109731;-62
2023/03/27 09:59:56;;;;;;;;;;;;;;;15.70;33.76;99659.01;107653;1257;108803;-62
2023/03/27 10:02:28;;;;;;;;;;;;;;;15.54;34.01;99652.96;107659;1256;97876;-63
2023/03/27 10:04:58;;;;;;;;;;;;;;;15.43;34.63;99651.84;106750;1253;1222673;-62
2023/03/27 10:07:32;;;;;;;;;;;;;;;15.37;35.08;99650.73;107659;1255;111238;-65
2023/03/27 10:10:19;;;;;;;;;;;;;;;15.33;35.44;99651.20;107650;1252;110697;-63
2023/03/27 10:13:10;;;;;;;;;;;;;;;15.34;35.54;99650.59;107611;1253;108556;-62
2023/03/27 10:15:43;;;;;;;;;;;;;;;15.31;35.94;99643.56;107630;1253;97739;-64
2023/03/27 10:18:19;;;;;;;;;;;;;;;15.29;36.51;99645.55;107623;1253;97994;-63
2023/03/27 10:20:57;;;;;;;;;;;;;;;15.28;36.77;99646.25;107658;1254;112098;-63
2023/03/27 10:23:28;;;;;;;;;;;;;;;15.26;37.10;99649.44;107643;1253;108368;-62
2023/03/27 10:26:02;;;;;;;;;;;;;;;15.21;36.99;99641.14;107626;1255;108923;-62
2023/03/27 10:28:44;;;;;;;;;;;;;;;15.17;37.21;99637.69;107669;1253;97828;-62
2023/03/27 10:31:23;;;;;;;;;;;;;;;15.14;37.61;99640.61;107656;1255;97704;-63
2023/03/27 10:33:56;;;;;;;;;;;;;;;15.13;37.94;99641.04;107657;1253;111388;-62
2023/03/27 10:36:45;;;;;;;;;;;;;;;15.13;37.85;99639.27;107709;1254;109597;-63
2023/03/27 10:39:16;;;;;;;;;;;;;;;15.12;37.89;99638.48;107661;1254;108746;-63
2023/03/27 10:42:15;;;;;;;;;;;;;;;15.11;37.87;99640.13;107461;1255;97877;-62
2023/03/27 10:44:48;;;;;;;;;;;;;;;15.07;38.06;99637.38;107740;1253;97808;-63
2023/03/27 10:47:21;;;;;;;;;;;;;;;15.01;38.52;99633.51;107586;1254;112266;-62
2023/03/27 10:50:00;;;;;;;;;;;;;;;14.99;38.66;99635.98;107597;1254;108671;-63
2023/03/27 10:52:44;;;;;;;;;;;;;;;14.97;38.95;99634.45;107583;1254;108067;-63
2023/03/27 10:55:19;;;;;;;;;;;;;;;14.93;39.18;99630.54;107540;1258;97853;-62
2023/03/27 10:57:52;;;;;;;;;;;;;;;14.93;39.38;99630.09;107644;1253;97818;-63
2023/03/27 11:00:31;;;;;;;;;;;;;;;14.93;39.71;99637.86;107630;1254;112101;-62
2023/03/27 11:03:10;;;;;;;;;;;;;;;14.92;39.89;99638.27;107655;1254;108245;-65
2023/03/27 11:05:40;;;;;;;;;;;;;;;14.92;40.04;99636.29;107593;1253;108590;-62
2023/03/27 11:08:22;;;;;;;;;;;;;;;14.92;40.34;99629.04;107617;1252;97858;-62
2023/03/27 11:10:51;;;;;;;;;;;;;;;14.98;40.55;99625.42;107683;1256;97906;-64
2023/03/27 11:13:38;;;;;;;;;;;;;;;15.04;40.51;99621.27;107598;1258;112025;-63
2023/03/27 11:16:14;;;;;;;;;;;;;;;15.09;40.56;99621.44;107646;1253;108685;-60
2023/03/27 11:19:45;;;;;;;;;;;;;;;15.14;40.67;99627.07;107700;1255;108373;-61
2023/03/27 11:22:50;;;;;;;;;;;;;;;15.18;40.39;99627.70;107640;1254;97810;-62
2023/03/27 11:25:50;;;;;;;;;;;;;;;15.20;40.59;99626.33;107532;1253;98190;-61
2023/03/27 11:28:42;;;;;;;;;;;;;;;15.24;40.56;99620.95;107659;1253;110725;-63
2023/03/27 11:31:31;;;;;;;;;;;;;;;15.26;40.59;99619.09;107650;1254;109706;-61
2023/03/27 11:34:06;;;;;;;;;;;;;;;15.24;40.61;99616.08;107643;1254;107926;-63
2023/03/27 11:36:50;;;;;;;;;;;;;;;15.24;40.85;99605.08;107625;1254;97928;-62
2023/03/27 11:39:35;;;;;;;;;;;;;;;15.23;40.77;99599.52;107688;1254;97912;-60
2023/03/27 11:42:09;;;;;;;;;;;;;;;15.21;40.76;99579.83;107654;1253;110704;-61
2023/03/27 11:44:37;;;;;;;;;;;;;;;15.18;40.86;99577.64;107656;1253;109061;-62
2023/03/27 11:47:18;;;;;;;;;;;;;;;15.15;40.95;99575.24;107591;1254;108701;-62
2023/03/27 11:49:56;;;;;;;;;;;;;;;15.12;40.65;99551.09;107605;1252;97826;-64
2023/03/27 11:52:33;;;;;;;;;;;;;;;15.12;40.66;99548.59;107661;1254;97702;-63
2023/03/27 11:55:08;;;;;;;;;;;;;;;15.14;39.25;99559.20;107652;1254;112002;-62
2023/03/27 11:58:03;;;;;;;;;;;;;;;15.12;38.85;99561.41;107709;1254;109638;-63
2023/03/27 12:00:53;;;;;;;;;;;;;;;15.10;39.18;99577.28;107372;1254;107805;-61
2023/03/27 12:03:51;;;;;;;;;;;;;;;15.09;39.47;99575.19;107589;1252;97830;-63
2023/03/27 12:06:33;;;;;;;;;;;;;;;15.07;39.81;99576.14;107382;1253;98011;-64
2023/03/27 12:09:16;;;;;;;;;;;;;;;15.08;40.63;99584.93;107700;1254;112383;-62
2023/03/27 12:12:05;;;;;;;;;;;;;;;15.06;40.06;99578.54;107670;1254;109873;-62
2023/03/27 12:14:37;;;;;;;;;;;;;;;14.98;39.29;99564.11;107650;1254;108397;-62
2023/03/27 12:17:31;;;;;;;;;;;;;;;14.88;40.04;99557.21;107615;1256;97818;-62
2023/03/27 12:20:14;;;;;;;;;;;;;;;14.80;41.30;99548.69;107601;1258;97823;-64
2023/03/27 12:23:12;;;;;;;;;;;;;;;14.72;41.21;99544.61;107546;1254;111725;-63
2023/03/27 12:26:25;;;;;;;;;;;;;;;14.63;41.28;99541.58;107571;1254;111827;-63
2023/03/27 12:29:22;;;;;;;;;;;;;;;14.55;41.73;99531.84;107483;1254;108135;-63
2023/03/27 12:32:14;;;;;;;;;;;;;;;14.51;42.43;99513.20;107587;1252;97845;-63
2023/03/27 12:34:48;;;;;;;;;;;;;;;14.48;42.91;99496.88;107499;1254;97842;-62
2023/03/27 12:37:21;;;;;;;;;;;;;;;14.44;43.32;99486.11;107723;1254;110685;-62
2023/03/27 12:39:55;;;;;;;;;;;;;;;14.38;43.61;99478.10;107653;1255;110548;-62
2023/03/27 12:42:43;;;;;;;;;;;;;;;14.35;43.77;99476.95;107520;1253;108114;-63
2023/03/27 12:45:21;;;;;;;;;;;;;;;14.38;43.65;99465.06;107569;1254;98483;-62
2023/03/27 12:48:14;;;;;;;;;;;;;;;14.36;44.07;99456.64;107585;1256;97808;-63
2023/03/27 12:50:55;;;;;;;;;;;;;;;14.32;44.33;99452.83;107593;1254;111932;-63
2023/03/27 12:53:24;;;;;;;;;;;;;;;14.29;44.92;99450.30;107700;1256;108999;-62
2023/03/27 12:56:13;;;;;;;;;;;;;;;14.30;44.57;99454.55;107654;1256;108354;-63
2023/03/27 12:58:43;;;;;;;;;;;;;;;14.35;44.34;99455.13;107601;1254;97799;-62
2023/03/27 13:01:27;;;;;;;;;;;;;;;14.42;44.15;99460.98;107588;1256;97928;-62
2023/03/27 13:04:07;;;;;;;;;;;;;;;14.45;44.41;99441.66;107621;1254;110327;-63
2023/03/27 13:06:47;;;;;;;;;;;;;;;14.46;44.62;99422.44;107630;1254;109843;-63
2023/03/27 13:09:19;;;;;;;;;;;;;;;14.47;43.88;99410.79;107631;1255;107819;-64
2023/03/27 13:12:03;;;;;;;;;;;;;;;14.52;44.41;99403.63;107678;1254;97866;-62
2023/03/27 13:15:11;;;;;;;;;;;;;;;14.54;44.39;99387.16;107655;1254;97707;-64
2023/03/27 13:17:58;;;;;;;;;;;;;;;14.59;44.37;99381.08;107113;1262;110772;-62
2023/03/27 13:20:45;;;;;;;;;;;;;;;14.61;43.97;99372.71;107171;1258;109839;-64
2023/03/27 13:23:25;;;;;;;;;;;;;;;14.62;44.00;99358.70;107453;1254;107802;-62
2023/03/27 13:26:09;;;;;;;;;;;;;;;14.65;44.02;99351.83;107550;1254;97861;-62